KHIB/HIB METAR and TAF weather

Enter ICAO airport designator
Station Type Date Time Source
KHIB METAR 2022/01/25 04:07 UTC NOAA

KHIB 250407Z AUTO 31011KT 3SM HZ OVC006 M24/M27 A3004 RMK AO2 UPB0354E07 P0000 T12391267


Station Type Date Time Source
KHIB Decoded METAR 2022/01/25 04:07 UTC NOAA

CHISHOLM-HIBBING AIRPORT, MN, United States (KHIB) 47-23N 92-50W 412M
Jan 24, 2022 - 11:07 PM EST / 2022.01.25 0407 UTC
Wind: from the NW (310 degrees) at 13 MPH (11 KT):0
Visibility: 3 mile(s):0
Sky conditions: overcast
Weather: haze
Precipitation last hour: A trace
Temperature: -11.0 F (-23.9 C)
Windchill: -32 F (-36 C):2
Dew Point: -16.1 F (-26.7 C)
Relative Humidity: 77%
Pressure (altimeter): 30.04 in. Hg (1017 hPa)
ob: KHIB 250407Z AUTO 31011KT 3SM HZ OVC006 M24/M27 A3004 RMK AO2 UPB0354E07 P0000 T12391267
cycle: 4

Station Type Date Time Source
KHIB TAF 2022/01/24 18:28 UTC NOAA

TAF KHIB 241726Z 2418/2518 32011KT P6SM SCT120

Example: see airport list